Time;durP1;ratioP1;P1;durP2;ratioP2;P2;SDS_P1;SDS_P2;PMS_P1;PMS_P2;Temp;Humidity;BMP_temperature;BMP_pressure;BME280_temperature;BME280_humidity;BME280_pressure;Samples;Min_cycle;Max_cycle;Signal;HPM_P1;HPM_P2
2023/08/11 00:02:06;;;;;;;10.70;2.13;;;15.60;99.90;;;;;;5059022;28;20101;-82
2023/08/11 00:04:31;;;;;;;11.45;2.05;;;15.50;99.90;;;;;;5068272;28;20027;-81
2023/08/11 00:06:57;;;;;;;4.68;1.52;;;15.50;99.90;;;;;;5032781;28;20033;-81
2023/08/11 00:09:23;;;;;;;6.10;1.90;;;15.40;99.90;;;;;;5067289;28;20478;-81
2023/08/11 00:11:50;;;;;;;8.65;2.50;;;15.30;99.90;;;;;;5065794;28;20232;-81
2023/08/11 00:14:16;;;;;;;5.65;1.63;;;15.20;99.90;;;;;;5049420;28;20028;-81
2023/08/11 00:16:41;;;;;;;5.30;1.90;;;15.10;99.90;;;;;;5067259;28;20028;-81
2023/08/11 00:19:07;;;;;;;7.97;1.73;;;15.10;99.90;;;;;;5065883;28;20111;-81
2023/08/11 00:21:32;;;;;;;8.77;2.22;;;14.90;99.90;;;;;;5040500;28;20047;-81
2023/08/11 00:23:58;;;;;;;5.97;2.05;;;14.90;99.90;;;;;;5068737;28;20120;-81
2023/08/11 00:26:24;;;;;;;5.82;2.35;;;14.80;99.90;;;;;;5069594;28;20037;-82
2023/08/11 00:28:50;;;;;;;4.00;2.20;;;14.70;99.90;;;;;;5067341;28;20067;-81
2023/08/11 00:31:16;;;;;;;4.18;1.80;;;14.70;99.90;;;;;;5062714;28;20028;-81
2023/08/11 00:33:46;;;;;;;6.97;2.08;;;14.60;99.90;;;;;;5068286;28;20107;-82
2023/08/11 00:36:13;;;;;;;4.80;1.90;;;14.60;99.90;;;;;;5058922;28;20028;-81
2023/08/11 00:38:39;;;;;;;6.10;2.20;;;14.50;99.90;;;;;;5069052;28;20063;-81
2023/08/11 00:41:07;;;;;;;2.33;1.63;;;14.50;99.90;;;;;;5067178;28;20442;-81
2023/08/11 00:43:33;;;;;;;3.00;1.95;;;14.50;99.90;;;;;;5067220;28;20394;-82
2023/08/11 00:46:12;;;;;;;6.05;1.70;;;14.40;99.90;;;;;;5066512;28;20051;-82
2023/08/11 00:48:40;;;;;;;4.40;1.92;;;14.40;99.90;;;;;;5068785;28;20033;-81
2023/08/11 00:51:06;;;;;;;6.90;1.98;;;14.30;99.90;;;;;;5065616;28;20039;-82
2023/08/11 00:53:36;;;;;;;4.60;1.95;;;14.30;99.90;;;;;;5061384;28;20032;-81
2023/08/11 00:56:03;;;;;;;4.47;1.70;;;14.20;99.90;;;;;;5059292;28;20063;-82
2023/08/11 00:58:30;;;;;;;4.07;1.60;;;14.30;99.90;;;;;;5062271;28;20028;-82
2023/08/11 01:00:57;;;;;;;4.95;1.77;;;14.20;99.90;;;;;;5065429;28;20017;-81
2023/08/11 01:03:23;;;;;;;8.93;2.03;;;14.20;99.90;;;;;;5067560;28;20111;-81
2023/08/11 01:06:08;;;;;;;9.75;2.58;;;14.20;99.90;;;;;;5067253;28;20051;-81
2023/08/11 01:08:43;;;;;;;2.10;1.55;;;14.10;99.90;;;;;;5066177;28;20043;-81
2023/08/11 01:11:28;;;;;;;4.65;1.83;;;14.10;99.90;;;;;;5062558;28;20056;-82
2023/08/11 01:14:02;;;;;;;6.57;2.05;;;14.10;99.90;;;;;;5050361;28;20025;-81
2023/08/11 01:16:29;;;;;;;4.97;1.80;;;14.10;99.90;;;;;;5065192;28;20035;-81
2023/08/11 01:18:57;;;;;;;6.30;1.90;;;14.00;99.90;;;;;;5065820;28;20510;-81
2023/08/11 01:21:27;;;;;;;5.97;1.65;;;14.00;99.90;;;;;;5062766;28;20035;-81
2023/08/11 01:23:54;;;;;;;5.93;1.80;;;14.00;99.90;;;;;;5066685;28;20068;-81
2023/08/11 01:26:20;;;;;;;5.18;1.70;;;13.90;99.90;;;;;;5065442;28;20041;-81
2023/08/11 01:28:47;;;;;;;3.17;1.80;;;13.90;99.90;;;;;;5063893;28;20032;-81
2023/08/11 01:31:12;;;;;;;3.75;1.80;;;13.90;99.90;;;;;;5061476;28;20029;-82
2023/08/11 01:33:38;;;;;;;3.17;1.48;;;13.90;99.90;;;;;;5068491;28;20478;-82
2023/08/11 01:36:03;;;;;;;6.88;2.00;;;13.90;99.90;;;;;;5065092;28;20397;-81
2023/08/11 01:38:29;;;;;;;3.42;1.38;;;13.90;99.90;;;;;;5068489;28;20359;-81
2023/08/11 01:40:57;;;;;;;2.63;1.40;;;13.90;99.90;;;;;;5065330;28;20036;-82
2023/08/11 01:43:25;;;;;;;2.10;1.23;;;13.90;99.90;;;;;;5057839;28;20031;-81
2023/08/11 01:45:51;;;;;;;4.72;1.98;;;13.90;99.90;;;;;;5063403;28;20123;-82
2023/08/11 01:48:19;;;;;;;2.40;1.48;;;13.90;99.90;;;;;;5069588;28;20111;-82
2023/08/11 01:50:45;;;;;;;9.95;1.85;;;13.80;99.90;;;;;;5061603;28;20024;-81
2023/08/11 01:53:11;;;;;;;8.65;2.28;;;13.80;99.90;;;;;;5070298;28;20538;-81
2023/08/11 01:55:37;;;;;;;17.00;3.33;;;13.80;99.90;;;;;;5070623;28;20016;-82
2023/08/11 01:58:03;;;;;;;4.97;1.80;;;13.80;99.90;;;;;;5051794;28;20543;-82
2023/08/11 02:00:29;;;;;;;3.20;1.80;;;13.70;99.90;;;;;;5060676;28;20040;-82
2023/08/11 02:02:55;;;;;;;2.50;1.20;;;13.70;99.90;;;;;;5064335;28;20024;-81
2023/08/11 02:05:24;;;;;;;6.97;2.17;;;13.70;99.90;;;;;;5061903;28;20123;-81
2023/08/11 02:07:50;;;;;;;4.72;1.80;;;13.60;99.90;;;;;;5064957;28;20028;-81
2023/08/11 02:10:16;;;;;;;3.30;1.55;;;13.60;99.90;;;;;;5049050;28;20470;-81
2023/08/11 02:12:42;;;;;;;3.95;1.70;;;13.60;99.90;;;;;;5066033;28;20120;-81
2023/08/11 02:15:10;;;;;;;8.98;2.15;;;13.60;99.90;;;;;;5067631;28;20446;-82
2023/08/11 02:17:37;;;;;;;11.00;2.10;;;13.50;99.90;;;;;;5066524;28;20032;-82
2023/08/11 02:20:22;;;;;;;4.72;2.00;;;13.50;99.90;;;;;;5059783;28;20033;-81
2023/08/11 02:22:49;;;;;;;11.23;2.78;;;13.50;99.90;;;;;;5067713;28;20031;-81
2023/08/11 02:25:15;;;;;;;3.85;1.98;;;13.50;99.90;;;;;;5062559;28;20127;-81
2023/08/11 02:27:41;;;;;;;3.63;1.95;;;13.40;99.90;;;;;;5067568;28;20199;-81
2023/08/11 02:30:10;;;;;;;4.80;1.83;;;13.40;99.90;;;;;;5066152;28;20055;-81
2023/08/11 02:32:37;;;;;;;4.70;2.25;;;13.40;99.90;;;;;;5065118;28;20363;-82
2023/08/11 02:35:04;;;;;;;8.70;1.90;;;13.40;99.90;;;;;;5064325;28;20039;-81
2023/08/11 02:37:30;;;;;;;3.67;2.22;;;13.40;99.90;;;;;;5062564;28;20496;-81
2023/08/11 02:39:56;;;;;;;6.60;2.10;;;13.40;99.90;;;;;;5062958;28;20041;-81
2023/08/11 02:42:21;;;;;;;9.20;1.98;;;13.40;99.90;;;;;;5060675;28;20473;-81
2023/08/11 02:44:48;;;;;;;7.15;2.00;;;13.30;99.90;;;;;;5062612;28;20069;-81
2023/08/11 02:47:15;;;;;;;4.00;1.63;;;13.40;99.90;;;;;;5062569;28;20082;-81
2023/08/11 02:49:40;;;;;;;8.73;2.00;;;13.40;99.90;;;;;;5066135;28;20025;-81
2023/08/11 02:52:06;;;;;;;7.75;1.77;;;13.40;99.90;;;;;;5064156;28;20470;-81
2023/08/11 02:54:31;;;;;;;5.93;1.75;;;13.40;99.90;;;;;;5068116;28;20494;-81
2023/08/11 02:56:57;;;;;;;2.90;1.63;;;13.40;99.90;;;;;;5069003;28;20078;-81
2023/08/11 02:59:22;;;;;;;4.88;2.13;;;13.40;99.90;;;;;;5061672;28;20036;-81
2023/08/11 03:01:48;;;;;;;5.90;1.75;;;13.40;99.90;;;;;;5064571;28;20473;-81
2023/08/11 03:04:16;;;;;;;6.32;2.50;;;13.40;99.90;;;;;;5065527;28;20070;-81
2023/08/11 03:06:42;;;;;;;4.53;1.85;;;13.40;99.90;;;;;;5062188;28;20052;-81
2023/08/11 03:09:08;;;;;;;9.57;1.70;;;13.40;99.90;;;;;;5065239;28;20033;-81
2023/08/11 03:11:34;;;;;;;5.03;1.45;;;13.40;99.90;;;;;;5065118;28;20029;-81
2023/08/11 03:14:00;;;;;;;4.03;1.67;;;13.30;99.90;;;;;;5064799;28;20029;-81
2023/08/11 03:16:26;;;;;;;8.55;1.80;;;13.40;99.90;;;;;;5059231;28;20381;-81
2023/08/11 03:18:52;;;;;;;5.78;1.98;;;13.30;99.90;;;;;;5063841;28;20024;-81
2023/08/11 03:21:18;;;;;;;12.00;1.90;;;13.30;99.90;;;;;;5061248;28;20059;-81
2023/08/11 03:23:43;;;;;;;3.80;2.30;;;13.40;99.90;;;;;;5064737;28;20440;-81
2023/08/11 03:26:09;;;;;;;3.47;1.58;;;13.40;99.90;;;;;;5057870;28;20544;-81
2023/08/11 03:28:35;;;;;;;4.03;1.48;;;13.50;99.90;;;;;;5063826;28;20032;-81
2023/08/11 03:31:01;;;;;;;1.95;1.30;;;13.50;99.90;;;;;;5062867;28;20039;-81
2023/08/11 03:33:26;;;;;;;2.90;1.65;;;13.50;99.90;;;;;;5059547;28;20033;-81
2023/08/11 03:35:52;;;;;;;4.47;1.40;;;13.60;99.90;;;;;;5059529;28;20106;-81
2023/08/11 03:38:18;;;;;;;1.95;1.30;;;13.60;99.90;;;;;;5066469;28;20034;-81
2023/08/11 03:40:43;;;;;;;1.50;1.13;;;13.60;99.90;;;;;;5068473;28;20059;-81
2023/08/11 03:43:09;;;;;;;1.55;1.40;;;13.70;99.90;;;;;;5066016;28;20025;-81
2023/08/11 03:45:37;;;;;;;7.55;2.10;;;13.70;99.90;;;;;;5059271;28;20087;-81
2023/08/11 03:48:05;;;;;;;2.35;1.45;;;13.80;99.90;;;;;;5068445;28;20140;-81
2023/08/11 03:50:30;;;;;;;4.05;1.52;;;13.80;99.90;;;;;;5068040;28;20032;-81
2023/08/11 03:52:56;;;;;;;2.60;1.60;;;13.80;99.90;;;;;;5073076;28;20104;-80
2023/08/11 03:55:22;;;;;;;7.38;2.00;;;13.80;99.90;;;;;;5072888;28;20032;-81
2023/08/11 03:57:48;;;;;;;4.55;1.80;;;13.80;99.90;;;;;;5069742;28;20025;-80
2023/08/11 04:00:15;;;;;;;4.22;2.70;;;13.70;99.90;;;;;;5066602;28;20040;-81
2023/08/11 04:02:44;;;;;;;3.83;2.05;;;13.70;99.90;;;;;;5066819;28;20054;-81
2023/08/11 04:05:10;;;;;;;3.00;1.75;;;13.60;99.90;;;;;;5071030;28;20031;-81
2023/08/11 04:07:36;;;;;;;2.70;1.67;;;13.60;99.90;;;;;;5068227;28;20029;-81
2023/08/11 04:10:04;;;;;;;4.25;2.00;;;13.60;99.90;;;;;;5065309;28;20032;-80
2023/08/11 04:12:32;;;;;;;3.00;1.38;;;13.50;99.90;;;;;;5064225;28;20025;-81
2023/08/11 04:14:59;;;;;;;3.40;1.73;;;13.50;99.90;;;;;;5066349;28;20093;-81
2023/08/11 04:17:26;;;;;;;3.53;1.58;;;13.50;99.90;;;;;;5066254;28;20097;-82
2023/08/11 04:19:53;;;;;;;1.60;1.33;;;13.50;99.90;;;;;;5046843;28;20047;-82
2023/08/11 04:22:19;;;;;;;4.68;1.83;;;13.50;99.90;;;;;;5067103;28;20047;-81
2023/08/11 04:24:45;;;;;;;2.95;1.67;;;13.50;99.90;;;;;;5065534;28;20032;-81
2023/08/11 04:27:10;;;;;;;2.67;1.50;;;13.40;99.90;;;;;;5065680;28;20041;-81
2023/08/11 04:29:36;;;;;;;2.03;1.50;;;13.40;99.90;;;;;;5068200;28;20032;-81
2023/08/11 04:32:04;;;;;;;6.63;1.50;;;13.40;99.90;;;;;;5065034;28;20119;-81
2023/08/11 04:34:33;;;;;;;2.40;1.30;;;13.40;99.90;;;;;;5068245;28;20025;-82
2023/08/11 04:36:59;;;;;;;6.80;2.00;;;13.40;99.90;;;;;;5062188;28;20028;-81
2023/08/11 04:39:25;;;;;;;3.95;1.70;;;13.40;99.90;;;;;;5071035;28;20116;-81
2023/08/11 04:41:51;;;;;;;4.75;1.73;;;13.40;99.90;;;;;;5066062;28;20163;-81
2023/08/11 04:44:17;;;;;;;2.20;1.58;;;13.40;99.90;;;;;;5066992;28;20113;-81
2023/08/11 04:46:42;;;;;;;2.10;1.38;;;13.40;99.90;;;;;;5063339;28;20420;-81
2023/08/11 04:49:08;;;;;;;3.08;1.38;;;13.40;99.90;;;;;;5066065;28;20032;-81
2023/08/11 04:51:33;;;;;;;1.33;1.23;;;13.40;99.90;;;;;;5059362;28;20043;-81
2023/08/11 04:54:03;;;;;;;1.85;1.63;;;13.50;99.90;;;;;;5065101;28;20394;-81
2023/08/11 04:56:28;;;;;;;5.63;1.50;;;13.40;99.90;;;;;;5066833;28;20428;-81
2023/08/11 04:58:55;;;;;;;1.50;1.40;;;13.50;99.90;;;;;;5064168;28;20024;-81
2023/08/11 05:01:24;;;;;;;2.50;1.92;;;13.50;99.90;;;;;;5063056;28;20033;-81
2023/08/11 05:03:50;;;;;;;3.75;2.20;;;13.60;99.90;;;;;;5060579;28;20060;-81
2023/08/11 05:06:16;;;;;;;3.70;1.80;;;13.60;99.90;;;;;;5061686;28;20041;-81
2023/08/11 05:08:43;;;;;;;6.70;2.10;;;13.70;99.90;;;;;;5062766;28;20029;-81
2023/08/11 05:11:09;;;;;;;3.50;1.63;;;13.70;99.90;;;;;;5059162;28;20020;-81
2023/08/11 05:13:35;;;;;;;4.47;2.00;;;13.70;99.90;;;;;;5055329;28;20036;-81
2023/08/11 05:16:01;;;;;;;3.50;1.70;;;13.70;99.90;;;;;;5058029;28;20036;-81
2023/08/11 05:18:27;;;;;;;5.82;1.92;;;13.80;99.90;;;;;;5064976;28;20028;-82
2023/08/11 05:20:52;;;;;;;9.25;2.00;;;13.80;99.90;;;;;;5068085;28;20024;-81
2023/08/11 05:23:18;;;;;;;2.50;1.90;;;13.90;99.90;;;;;;5068916;28;20017;-81
2023/08/11 05:25:44;;;;;;;4.60;1.90;;;13.90;99.90;;;;;;5065545;28;20064;-81
2023/08/11 05:28:10;;;;;;;4.18;1.70;;;14.00;99.90;;;;;;5066119;28;20123;-81
2023/08/11 05:30:36;;;;;;;6.68;1.52;;;14.10;99.90;;;;;;5060982;28;20099;-81
2023/08/11 05:33:01;;;;;;;3.58;1.83;;;14.20;99.90;;;;;;5064806;28;20032;-81
2023/08/11 05:35:29;;;;;;;4.53;1.58;;;14.20;99.90;;;;;;5084025;28;20020;-81
2023/08/11 05:37:56;;;;;;;2.47;1.35;;;14.30;99.90;;;;;;5051131;28;20496;-81
2023/08/11 05:40:21;;;;;;;1.70;1.40;;;14.40;99.90;;;;;;5064974;28;20143;-81
2023/08/11 05:42:47;;;;;;;4.45;1.65;;;14.50;99.90;;;;;;5065126;28;20115;-81
2023/08/11 05:45:13;;;;;;;1.15;1.10;;;14.70;99.90;;;;;;5067197;28;20115;-81
2023/08/11 05:47:39;;;;;;;4.40;1.90;;;14.70;99.90;;;;;;5060533;28;20056;-81
2023/08/11 05:50:06;;;;;;;3.83;1.63;;;14.90;99.90;;;;;;5066796;28;20553;-81
2023/08/11 05:52:32;;;;;;;1.48;1.35;;;15.00;99.90;;;;;;5054907;28;20021;-81
2023/08/11 05:54:57;;;;;;;3.28;1.58;;;15.10;99.90;;;;;;5063993;28;20039;-81
2023/08/11 05:57:23;;;;;;;3.65;1.50;;;15.30;99.90;;;;;;5046493;28;20423;-81
2023/08/11 05:59:49;;;;;;;2.67;1.50;;;15.40;99.90;;;;;;5068195;28;20052;-81
2023/08/11 06:02:17;;;;;;;1.30;1.20;;;15.60;99.90;;;;;;5062810;28;20036;-81
2023/08/11 06:04:44;;;;;;;1.52;1.15;;;15.70;99.90;;;;;;5058885;28;20033;-81
2023/08/11 06:07:10;;;;;;;2.05;1.27;;;15.80;99.90;;;;;;5065548;28;20047;-81
2023/08/11 06:09:36;;;;;;;3.13;1.27;;;15.90;99.90;;;;;;5067839;28;20032;-81
2023/08/11 06:12:01;;;;;;;1.15;1.00;;;16.00;99.90;;;;;;5059913;28;20028;-81
2023/08/11 06:14:27;;;;;;;1.73;1.10;;;16.10;99.90;;;;;;5060913;28;20119;-81
2023/08/11 06:16:53;;;;;;;5.18;1.85;;;16.20;99.90;;;;;;5054462;28;20021;-81
2023/08/11 06:19:18;;;;;;;1.63;1.20;;;16.30;99.90;;;;;;5057012;28;20037;-81
2023/08/11 06:21:45;;;;;;;1.60;1.50;;;16.40;99.90;;;;;;5059874;28;20028;-81
2023/08/11 06:24:11;;;;;;;1.70;1.23;;;16.50;99.90;;;;;;5064015;28;20071;-81
2023/08/11 06:26:36;;;;;;;1.60;1.10;;;16.60;99.90;;;;;;5063132;28;20095;-81
2023/08/11 06:29:04;;;;;;;1.10;1.00;;;16.70;99.90;;;;;;5063747;28;20041;-82
2023/08/11 06:31:30;;;;;;;2.83;1.30;;;16.80;99.90;;;;;;5063956;28;20025;-81
2023/08/11 06:33:56;;;;;;;1.95;1.33;;;16.90;99.90;;;;;;5060043;28;20501;-81
2023/08/11 06:36:21;;;;;;;4.85;1.88;;;17.00;99.90;;;;;;5062980;28;20133;-81
2023/08/11 06:38:47;;;;;;;2.10;1.67;;;17.10;99.90;;;;;;5061094;28;20119;-81
2023/08/11 06:41:12;;;;;;;5.07;1.60;;;17.10;99.90;;;;;;5063115;28;20072;-82
2023/08/11 06:43:39;;;;;;;4.75;1.40;;;17.10;99.90;;;;;;5063484;28;20021;-81
2023/08/11 06:46:05;;;;;;;10.60;2.28;;;17.20;99.90;;;;;;5067214;28;20040;-81
2023/08/11 06:48:31;;;;;;;2.55;1.42;;;17.20;99.90;;;;;;5057181;28;20028;-81
2023/08/11 06:50:57;;;;;;;3.28;1.52;;;17.30;99.90;;;;;;5055438;28;20025;-81
2023/08/11 06:53:23;;;;;;;1.98;1.27;;;17.30;99.90;;;;;;5063901;28;20020;-81
2023/08/11 06:55:49;;;;;;;4.28;1.52;;;17.30;99.90;;;;;;5067298;28;20036;-81
2023/08/11 06:58:14;;;;;;;1.85;1.27;;;17.40;99.90;;;;;;5065306;28;20362;-81
2023/08/11 07:00:40;;;;;;;1.75;1.35;;;17.40;99.90;;;;;;5065198;28;20058;-81
2023/08/11 07:03:05;;;;;;;1.30;1.10;;;17.50;99.90;;;;;;5057112;28;20442;-82
2023/08/11 07:05:31;;;;;;;2.83;1.30;;;17.50;99.90;;;;;;5057073;28;20103;-82
2023/08/11 07:07:57;;;;;;;2.05;1.23;;;17.60;99.90;;;;;;5067300;28;20479;-81
2023/08/11 07:10:22;;;;;;;1.98;1.40;;;17.60;99.90;;;;;;5064819;28;20033;-81
2023/08/11 07:12:48;;;;;;;18.70;5.55;;;17.70;99.90;;;;;;5056011;28;20111;-82
2023/08/11 07:15:13;;;;;;;263.73;61.92;;;17.70;99.90;;;;;;5061951;28;20066;-82
2023/08/11 07:17:42;;;;;;;46.72;12.23;;;17.80;99.90;;;;;;5065058;28;20054;-81
2023/08/11 07:20:08;;;;;;;19.67;6.25;;;17.80;99.90;;;;;;5047378;28;20040;-81
2023/08/11 07:22:33;;;;;;;48.03;6.00;;;17.90;99.90;;;;;;5068749;28;20393;-81
2023/08/11 07:24:59;;;;;;;9.75;2.10;;;18.00;99.90;;;;;;5068776;28;20127;-82
2023/08/11 07:27:25;;;;;;;3.63;1.23;;;18.00;99.90;;;;;;5056959;28;20127;-81
2023/08/11 07:29:50;;;;;;;1.13;1.00;;;18.00;99.90;;;;;;5057056;28;20031;-82
2023/08/11 07:32:16;;;;;;;1.02;0.82;;;18.10;99.90;;;;;;5056111;28;20040;-82
2023/08/11 07:34:41;;;;;;;3.17;0.90;;;18.20;99.90;;;;;;5064974;28;20035;-82
2023/08/11 07:37:07;;;;;;;5.18;0.90;;;18.20;99.90;;;;;;5065811;28;20074;-82
2023/08/11 07:39:34;;;;;;;1.50;1.13;;;18.30;99.90;;;;;;5066535;28;20059;-82
2023/08/11 07:42:02;;;;;;;1.25;0.95;;;18.40;99.90;;;;;;5067050;28;20029;-82
2023/08/11 07:44:33;;;;;;;1.50;1.40;;;18.40;99.90;;;;;;5066709;28;20039;-81
2023/08/11 07:47:03;;;;;;;0.90;0.80;;;18.40;99.90;;;;;;5066522;28;20044;-81
2023/08/11 07:49:29;;;;;;;1.17;1.08;;;18.50;99.90;;;;;;5047898;28;20063;-81
2023/08/11 07:51:57;;;;;;;2.47;0.90;;;18.60;99.90;;;;;;5048965;28;20032;-82
2023/08/11 07:54:23;;;;;;;1.20;1.10;;;18.70;99.90;;;;;;5067018;28;20474;-82
2023/08/11 07:56:48;;;;;;;1.00;0.90;;;18.80;99.90;;;;;;5066456;28;20468;-81
2023/08/11 07:59:15;;;;;;;3.28;1.08;;;18.80;99.90;;;;;;5067056;28;20119;-82
2023/08/11 08:01:41;;;;;;;2.47;0.98;;;18.90;99.90;;;;;;5065941;28;20053;-81
2023/08/11 08:04:07;;;;;;;1.70;0.80;;;18.90;99.90;;;;;;5063771;28;20035;-81
2023/08/11 08:06:35;;;;;;;1.15;0.98;;;18.90;99.90;;;;;;5049518;28;20486;-81
2023/08/11 08:09:02;;;;;;;1.48;1.10;;;18.90;99.90;;;;;;5064850;28;20036;-83
2023/08/11 08:11:28;;;;;;;0.68;0.63;;;19.00;99.90;;;;;;5060104;28;20090;-83
2023/08/11 08:13:54;;;;;;;2.55;1.02;;;19.00;99.90;;;;;;5052242;28;20037;-81
2023/08/11 08:16:20;;;;;;;0.75;0.68;;;19.00;99.90;;;;;;5059800;28;20040;-80
2023/08/11 08:18:46;;;;;;;1.75;0.90;;;19.00;99.90;;;;;;5058245;28;20063;-83
2023/08/11 08:21:11;;;;;;;3.10;0.80;;;19.00;99.90;;;;;;5044817;28;20473;-83
2023/08/11 08:23:37;;;;;;;4.43;0.93;;;19.10;99.90;;;;;;5064424;28;20321;-83
2023/08/11 08:26:03;;;;;;;3.90;1.00;;;19.10;99.90;;;;;;5065498;28;20036;-83
2023/08/11 08:28:29;;;;;;;4.72;1.10;;;19.20;99.90;;;;;;5066550;28;20020;-83
2023/08/11 08:30:54;;;;;;;2.15;1.17;;;19.30;99.90;;;;;;5046934;28;20031;-83
2023/08/11 08:33:20;;;;;;;3.33;1.08;;;19.40;99.90;;;;;;5063233;28;20652;-83
2023/08/11 08:35:46;;;;;;;5.22;1.05;;;19.40;99.90;;;;;;5062332;28;20048;-84
2023/08/11 08:38:11;;;;;;;1.08;0.95;;;19.50;99.90;;;;;;5069515;28;20481;-84
2023/08/11 08:40:37;;;;;;;1.83;0.85;;;19.50;99.90;;;;;;5068916;28;20048;-84
2023/08/11 08:43:03;;;;;;;1.55;0.88;;;19.60;99.90;;;;;;5050074;28;20033;-83
2023/08/11 08:45:31;;;;;;;4.72;1.08;;;19.60;99.90;;;;;;5067715;28;20078;-85
2023/08/11 08:47:59;;;;;;;1.85;0.85;;;19.60;99.90;;;;;;5068389;28;20016;-84
2023/08/11 08:50:26;;;;;;;2.38;1.30;;;19.70;99.90;;;;;;5065226;28;20029;-84
2023/08/11 08:52:53;;;;;;;3.45;1.40;;;19.70;99.90;;;;;;5054035;28;20025;-84
2023/08/11 08:55:19;;;;;;;23.70;3.90;;;19.70;99.90;;;;;;5068167;28;20206;-85
2023/08/11 08:57:46;;;;;;;8.27;2.20;;;19.80;99.90;;;;;;5066399;28;20021;-84
2023/08/11 09:00:12;;;;;;;4.05;1.30;;;19.80;99.90;;;;;;5064268;28;20466;-81
2023/08/11 09:02:38;;;;;;;37.45;5.55;;;19.80;99.90;;;;;;5069355;28;20035;-81
2023/08/11 09:05:06;;;;;;;6.43;1.83;;;20.00;99.90;;;;;;5067045;28;20024;-82
2023/08/11 09:07:32;;;;;;;2.33;1.20;;;20.00;99.90;;;;;;5069679;28;20028;-80
2023/08/11 09:09:57;;;;;;;1.73;1.20;;;20.00;99.90;;;;;;5064930;28;20028;-81
2023/08/11 09:12:27;;;;;;;0.77;0.77;;;20.10;99.90;;;;;;5064072;28;20444;-80
2023/08/11 09:14:53;;;;;;;1.63;0.88;;;20.10;99.90;;;;;;5062736;28;20386;-81
2023/08/11 09:17:18;;;;;;;2.38;1.23;;;20.10;99.90;;;;;;5047384;28;20129;-81
2023/08/11 09:19:50;;;;;;;1.58;0.95;;;20.20;99.90;;;;;;5068697;28;20070;-81
2023/08/11 09:22:16;;;;;;;3.95;1.50;;;20.20;99.90;;;;;;5066443;28;20032;-81
2023/08/11 09:24:45;;;;;;;3.78;1.02;;;20.30;99.90;;;;;;5064964;28;20032;-81
2023/08/11 09:27:12;;;;;;;4.78;1.40;;;20.30;99.90;;;;;;5058331;28;20044;-81
2023/08/11 09:29:37;;;;;;;1.48;0.90;;;20.40;99.90;;;;;;5061322;28;20253;-81
2023/08/11 09:32:04;;;;;;;2.15;1.20;;;20.50;99.90;;;;;;5060649;28;20513;-81
2023/08/11 09:34:30;;;;;;;4.05;0.90;;;20.60;99.90;;;;;;5068524;28;20036;-81
2023/08/11 09:36:56;;;;;;;8.98;1.38;;;20.60;99.90;;;;;;5068433;28;20492;-82
2023/08/11 09:39:21;;;;;;;1.60;1.10;;;20.70;99.90;;;;;;5057834;28;20055;-82
2023/08/11 09:41:48;;;;;;;2.08;1.00;;;20.70;99.90;;;;;;5062454;28;20024;-81
2023/08/11 09:44:16;;;;;;;1.33;0.88;;;20.80;99.90;;;;;;5064799;28;20248;-82
2023/08/11 09:46:42;;;;;;;3.88;1.10;;;20.80;99.90;;;;;;5068306;28;20036;-82
2023/08/11 09:49:08;;;;;;;1.40;0.80;;;20.80;99.90;;;;;;5067705;28;20132;-83
2023/08/11 09:51:37;;;;;;;0.75;0.75;;;20.90;99.90;;;;;;5066082;28;20136;-82
2023/08/11 09:54:06;;;;;;;1.10;1.00;;;20.90;99.90;;;;;;5065265;28;20040;-82
2023/08/11 09:56:40;;;;;;;3.47;1.00;;;21.00;99.90;;;;;;5066303;28;20028;-82
2023/08/11 09:59:15;;;;;;;1.98;0.88;;;21.10;99.90;;;;;;5062968;28;20033;-82
2023/08/11 10:01:43;;;;;;;5.95;1.02;;;21.10;99.90;;;;;;5068487;28;20036;-81
2023/08/11 10:04:31;;;;;;;0.90;0.90;;;21.20;99.90;;;;;;5060027;28;20033;-83
2023/08/11 10:06:59;;;;;;;19.55;6.32;;;21.20;99.90;;;;;;5052988;28;20044;-82
2023/08/11 10:09:27;;;;;;;5.45;1.00;;;21.30;99.90;;;;;;5068022;28;20446;-82
2023/08/11 10:11:53;;;;;;;2.38;1.25;;;21.40;99.90;;;;;;5048366;28;20116;-82
2023/08/11 10:14:21;;;;;;;2.03;1.00;;;21.60;99.90;;;;;;5068437;28;20424;-82
2023/08/11 10:16:47;;;;;;;1.38;0.95;;;21.60;99.90;;;;;;5068864;28;20052;-82
2023/08/11 10:19:13;;;;;;;5.93;1.27;;;21.70;99.90;;;;;;5060202;28;20382;-82
2023/08/11 10:21:42;;;;;;;3.65;1.23;;;21.70;99.90;;;;;;5063886;28;20059;-82
2023/08/11 10:24:09;;;;;;;3.33;1.10;;;21.80;99.90;;;;;;5067594;28;20028;-82
2023/08/11 10:26:35;;;;;;;3.58;1.63;;;21.90;99.90;;;;;;5067008;28;20044;-82
2023/08/11 10:29:01;;;;;;;6.15;1.42;;;22.00;99.90;;;;;;5063881;28;20100;-83
2023/08/11 10:31:37;;;;;;;2.50;1.30;;;22.20;99.90;;;;;;5067858;28;20111;-81
2023/08/11 10:34:06;;;;;;;2.97;1.42;;;22.40;99.90;;;;;;5065623;28;20036;-82
2023/08/11 10:36:32;;;;;;;6.18;2.45;;;22.40;99.90;;;;;;5055975;28;20154;-83
2023/08/11 10:39:00;;;;;;;3.70;1.25;;;22.40;99.90;;;;;;5068153;28;20025;-81
2023/08/11 10:41:27;;;;;;;3.53;1.20;;;22.40;99.90;;;;;;5068181;28;20029;-83
2023/08/11 10:43:54;;;;;;;3.70;1.13;;;22.40;99.90;;;;;;5067987;28;20604;-81
2023/08/11 10:46:30;;;;;;;3.97;1.33;;;22.40;99.90;;;;;;5067481;28;20044;-83
2023/08/11 10:49:04;;;;;;;2.55;1.10;;;22.50;99.90;;;;;;5068148;28;20048;-82
2023/08/11 10:51:35;;;;;;;2.95;1.70;;;22.50;99.90;;;;;;5068123;28;20025;-82
2023/08/11 10:54:11;;;;;;;3.90;1.70;;;22.70;99.90;;;;;;5067968;28;20045;-81
2023/08/11 10:56:39;;;;;;;3.40;1.65;;;22.90;99.90;;;;;;5066347;28;20108;-83
2023/08/11 10:59:05;;;;;;;3.17;1.23;;;22.90;99.90;;;;;;5063332;28;20033;-82
2023/08/11 11:01:34;;;;;;;3.50;1.63;;;23.10;99.90;;;;;;5065272;28;20056;-83
2023/08/11 11:04:01;;;;;;;2.45;1.50;;;23.20;99.90;;;;;;5046380;28;20040;-83
2023/08/11 11:06:27;;;;;;;3.13;1.40;;;23.20;99.90;;;;;;5056137;28;20048;-82
2023/08/11 11:08:52;;;;;;;5.05;1.50;;;23.20;99.90;;;;;;5061697;28;20422;-82
2023/08/11 11:11:18;;;;;;;3.33;1.23;;;23.30;99.90;;;;;;5053892;28;20025;-87
2023/08/11 11:13:43;;;;;;;6.32;1.67;;;23.40;99.90;;;;;;5061064;28;20043;-81
2023/08/11 11:16:09;;;;;;;2.25;1.20;;;23.50;99.90;;;;;;5056408;28;20042;-81
2023/08/11 11:18:35;;;;;;;3.00;1.17;;;23.60;99.90;;;;;;5058483;28;20052;-81
2023/08/11 11:21:00;;;;;;;7.18;2.00;;;23.60;99.90;;;;;;5069380;28;20374;-82
2023/08/11 11:23:26;;;;;;;1.05;0.93;;;23.60;99.90;;;;;;5058673;28;20799;-81
2023/08/11 11:25:51;;;;;;;4.05;1.17;;;23.70;99.90;;;;;;5065576;28;20519;-82
2023/08/11 11:28:17;;;;;;;2.33;1.42;;;23.60;99.90;;;;;;5048669;28;20028;-83
2023/08/11 11:30:43;;;;;;;1.88;1.00;;;23.70;99.90;;;;;;5061436;28;20102;-82
2023/08/11 11:33:08;;;;;;;2.97;1.48;;;23.70;99.90;;;;;;5057540;28;20031;-80
2023/08/11 11:35:35;;;;;;;3.88;1.35;;;23.70;99.90;;;;;;5063986;28;20042;-82
2023/08/11 11:38:01;;;;;;;2.85;1.48;;;23.70;99.90;;;;;;5073193;28;20039;-82
2023/08/11 11:40:29;;;;;;;3.28;1.42;;;23.70;99.90;;;;;;5057076;28;20131;-82
2023/08/11 11:42:55;;;;;;;2.20;1.23;;;23.60;99.90;;;;;;5063128;28;22620;-81
2023/08/11 11:45:22;;;;;;;3.97;1.40;;;23.60;99.90;;;;;;5063252;28;20029;-81
2023/08/11 11:47:48;;;;;;;1.80;1.30;;;23.60;99.90;;;;;;5061996;28;20032;-82
2023/08/11 11:50:16;;;;;;;1.67;1.05;;;23.70;99.90;;;;;;5041685;28;20025;-81
2023/08/11 11:52:46;;;;;;;3.85;1.58;;;23.70;99.90;;;;;;5062268;28;20435;-82
2023/08/11 11:55:12;;;;;;;9.32;1.75;;;23.70;99.90;;;;;;5063264;28;20085;-83
2023/08/11 11:57:38;;;;;;;4.35;1.48;;;23.80;99.90;;;;;;5065571;28;20025;-82
2023/08/11 12:00:10;;;;;;;3.10;1.35;;;24.00;99.90;;;;;;5057120;28;20480;-82
2023/08/11 12:02:36;;;;;;;7.50;1.52;;;24.10;99.90;;;;;;5064626;28;20024;-82
2023/08/11 12:05:03;;;;;;;3.15;1.40;;;24.10;99.90;;;;;;5061548;28;20374;-82
2023/08/11 12:07:33;;;;;;;4.43;1.80;;;24.10;99.90;;;;;;5059167;28;20607;-82
2023/08/11 12:09:59;;;;;;;3.92;1.75;;;24.00;99.90;;;;;;5043648;28;20081;-81
2023/08/11 12:12:28;;;;;;;3.75;1.58;;;24.00;99.90;;;;;;5058169;28;20107;-83
2023/08/11 12:15:01;;;;;;;2.85;1.75;;;24.20;99.90;;;;;;5068929;28;20047;-82
2023/08/11 12:17:30;;;;;;;3.50;1.45;;;24.20;99.90;;;;;;5063699;28;20069;-82
2023/08/11 12:19:56;;;;;;;5.03;1.83;;;24.30;99.90;;;;;;5064376;28;20021;-81
2023/08/11 12:22:22;;;;;;;16.58;2.97;;;24.60;99.90;;;;;;5069006;28;20381;-83
2023/08/11 12:24:47;;;;;;;2.15;1.20;;;24.80;99.90;;;;;;5064130;28;20466;-82
2023/08/11 12:27:13;;;;;;;4.13;1.20;;;24.90;99.90;;;;;;5067615;28;20033;-81
2023/08/11 12:29:38;;;;;;;3.00;1.15;;;24.70;99.90;;;;;;5060394;28;20028;-82
2023/08/11 12:32:05;;;;;;;2.47;1.48;;;24.80;99.90;;;;;;5065732;28;20044;-83
2023/08/11 12:34:31;;;;;;;7.68;1.50;;;24.90;99.90;;;;;;5065581;28;20414;-83
2023/08/11 12:36:56;;;;;;;6.72;2.22;;;24.90;99.90;;;;;;5058830;28;20039;-82
2023/08/11 12:39:22;;;;;;;4.88;2.20;;;24.90;99.90;;;;;;5062182;28;20610;-80
2023/08/11 12:41:48;;;;;;;5.82;2.47;;;24.90;99.90;;;;;;5059188;28;20032;-83
2023/08/11 12:44:15;;;;;;;9.00;2.95;;;25.10;99.90;;;;;;5059365;28;20151;-81